Air Resources Laboratory banner image
Air Resources Laboratory web site National Oceanic and Atmospheric Administration (NOAA)

ut metar


KBCE 142353Z AUTO VRB04KT 10SM CLR 03/M11 A3031 RMK AO2 SLPNO T00331111 53009=
KCDC 142353Z AUTO 36007KT 10SM CLR 03/M06 A3034 RMK AO2 SLP281 T00281061 10061
 20017 53008=
KCNY 142353Z AUTO 00000KT 10SM CLR 07/M08 A3027 RMK AO2 SLP251 T00721083 10100
 20072 53003=
KDPG 150000Z VRB03KT 15SM FEW170 SCT220 01/M05 A3041 RMK SLP320 T00121054 10048
 21013 55003 LAST=
KDTA 142355Z AUTO 00000KT 10SM CLR 02/M05 A3040 RMK AO1=
KENV 142356Z AUTO 00000KT 10SM CLR 01/M05 A3042 RMK AO2 SLP342 T00061050 10028
 20000 56005 FZRANO=
KHIF 142358Z AUTO 17004KT 10SM CLR M01/M04 A3040 RMK AO2 SLP321 60000 T10131045
 10022 21013 55002 FZRANO $=
KHVE 142355Z AUTO 00000KT 10SM CLR 09/M10 A3031 RMK AO2=
KLGU 142351Z AUTO 27003KT 7SM CLR M01/M06 A3041 RMK AO2 SLP335 T10111056 10011
 21028 55004=
KMLF 142352Z AUTO 02008KT 10SM CLR 03/M06 A3038 RMK AO2 SLP305 T00281056 10056
 20011 53003=
KOGD 142353Z 17004KT 8SM CLR 00/M04 A3040 RMK AO2 SLP319 T00001039 10033 20000
 55002=
KPUC 142353Z AUTO 19004KT 10SM CLR 07/M09 A3027 RMK AO2 SLP267 T00671089 10089
 20050 53001=
KPVU 142356Z 00000KT 6SM BR CLR 01/M03 A3043 RMK AO2 SLP326 T00061028 10022
 20000 58001=
KSGU 142356Z AUTO 11005KT 10SM CLR 13/M06 A3024 RMK AO2 SLP234 T01331061 10150
 20111 55001=
KSLC 142354Z 00000KT 10SM FEW130 SCT230 02/M03 A3040 RMK AO2 SLP311 I6000
 T00221033 10050 20006 58004=
KSLR 142355Z AUTO 35012KT 10SM CLR 11/M01 A3010 RMK AO2 T01071006 10166 20107=
KVEL 142353Z AUTO 00000KT 10SM CLR 03/M07 A3033 RMK AO2 SLP282 T00281072 10056
 20022 53003=